Etusivu
METAR-TAF:

METAR-TAF

Lentoasemat :

Arlington Municipal Airport

Arlington, Washington, Yhdysvallat

Leveyspiiri: 48-10N, Pituuspiiri: 122-10W, korkeus merenpinnasta: 42 m

Tämänhetkinen sää

Tämä raportti tehtiin 33 minuuttia sitten, kello 13.54 UTC
Tuuli 5 kn pohjoisesta/koillisesta
Lämpötila 9°C
Kosteus 100%
Ilmanpaine 1020 hPa
Näkyvyys: 0.4 km
Pilvistä 200 ft:n korkeudessa
sumua

METAR: KAWO 291354Z AUTO 02005KT 1/4SM FG OVC002 09/09 A3012 RMK AO2 SLP202 T00940089 PNO $

Aika: 07:27 (14:27 UTC)


TAF: puuttuu

Säähavainnot ja -ennusteet yli 4000 lentoasemalta (METAR- ja TAF-raportit).

Käytössä olevat sääasemat on merkitty karttaan keltaisilla ja punaisilla pisteillä.

Aseta hiiri pisteen päälle nähdäksesi sääaseman nimen.

Klikkaa sitten nähdäksesi säähavainnot ja -ennusteet.

Kartan vaihtaminen: klikkaa mustalla rastilla varustettuja vihreitä pisteitä, niin voit zoomata sisään; viivalla varustettua vihreää pistettä, niin voit zoomata ulos tai vihreitä nuolia, niin pääset viereisille kartoille.


METAR-TAF: